createdAt,value
2017-08-24T00:01:19.286Z,70.25
2017-08-24T00:03:46.679Z,70.74
2017-08-24T00:06:14.079Z,71.26
2017-08-24T00:08:41.627Z,72.12
2017-08-24T00:11:09.022Z,72.47
2017-08-24T00:13:36.416Z,73.02
2017-08-24T00:16:03.823Z,74.30
2017-08-24T00:18:31.219Z,75.02
2017-08-24T00:20:58.615Z,75.77
2017-08-24T00:23:26.169Z,75.98
2017-08-24T00:25:53.558Z,76.14
2017-08-24T00:28:20.958Z,76.04
2017-08-24T00:30:48.822Z,76.11
2017-08-24T00:33:16.238Z,76.25
2017-08-24T00:35:43.634Z,76.29
2017-08-24T00:38:11.077Z,76.80
2017-08-24T00:40:38.470Z,76.75
2017-08-24T00:43:05.868Z,76.34
2017-08-24T00:45:33.278Z,76.44
2017-08-24T00:48:00.678Z,76.71
2017-08-24T00:50:28.073Z,76.80
2017-08-24T00:52:56.015Z,76.84
2017-08-24T00:55:23.415Z,76.67
2017-08-24T00:57:50.810Z,76.66
2017-08-24T01:00:18.386Z,76.59
2017-08-24T01:02:45.791Z,76.37
2017-08-24T01:05:13.186Z,76.20
2017-08-24T01:07:40.702Z,76.22
2017-08-24T01:10:08.093Z,76.20
2017-08-24T01:12:35.495Z,76.17
2017-08-24T01:15:03.003Z,76.21
2017-08-24T01:17:30.405Z,76.13
2017-08-24T01:19:57.798Z,76.23
2017-08-24T01:22:25.240Z,76.44
2017-08-24T01:24:52.639Z,76.62
2017-08-24T01:27:20.033Z,76.56
2017-08-24T01:29:47.442Z,76.67
2017-08-24T01:32:14.831Z,76.75
2017-08-24T01:34:42.230Z,76.76
2017-08-24T01:37:09.679Z,76.86
2017-08-24T01:39:37.075Z,75.62
2017-08-24T01:42:04.471Z,74.40
2017-08-24T01:44:31.916Z,74.85
2017-08-24T01:46:59.305Z,74.34
2017-08-24T01:49:26.703Z,74.01
2017-08-24T01:51:54.139Z,73.43
2017-08-24T01:54:21.541Z,73.43
2017-08-24T01:56:48.947Z,72.91
2017-08-24T01:59:16.509Z,72.43
2017-08-24T02:01:43.904Z,72.13
2017-08-24T02:04:11.323Z,72.66
2017-08-24T02:06:38.741Z,72.35
2017-08-24T02:09:06.143Z,72.70
2017-08-24T02:11:33.539Z,72.14
2017-08-24T02:14:01.247Z,72.37
2017-08-24T02:16:28.651Z,72.47
2017-08-24T02:18:56.059Z,72.59
2017-08-24T02:21:23.463Z,72.79
2017-08-24T02:23:50.862Z,72.85
2017-08-24T02:26:18.258Z,72.86
2017-08-24T02:28:45.807Z,72.77
2017-08-24T02:31:13.203Z,72.91
2017-08-24T02:33:40.598Z,72.86
2017-08-24T02:36:08.007Z,72.58
2017-08-24T02:38:35.402Z,72.46
2017-08-24T02:41:02.790Z,72.74
2017-08-24T02:43:30.574Z,72.39
2017-08-24T02:45:57.974Z,71.93
2017-08-24T02:48:25.366Z,72.56
2017-08-24T02:50:52.871Z,72.44
2017-08-24T02:53:20.266Z,72.47
2017-08-24T02:55:47.663Z,72.66
2017-08-24T02:58:15.242Z,72.47
2017-08-24T03:00:42.643Z,73.02
2017-08-24T03:03:10.041Z,72.99
2017-08-24T03:05:37.542Z,72.97
2017-08-24T03:08:04.939Z,73.21
2017-08-24T03:10:32.326Z,74.12
2017-08-24T03:12:59.746Z,74.36
2017-08-24T03:15:27.139Z,74.59
2017-08-24T03:17:54.534Z,74.68
2017-08-24T03:20:21.970Z,74.82
2017-08-24T03:22:49.366Z,74.87
2017-08-24T03:25:16.766Z,74.41
2017-08-24T03:27:44.207Z,74.44
2017-08-24T03:30:11.603Z,74.42
2017-08-24T03:32:38.998Z,73.98
2017-08-24T03:35:06.438Z,74.62
2017-08-24T03:37:33.830Z,74.46
2017-08-24T03:40:01.222Z,75.48
2017-08-24T03:42:28.630Z,74.95
2017-08-24T03:44:56.027Z,74.94
2017-08-24T03:47:23.422Z,75.01
2017-08-24T03:49:51.192Z,74.52
2017-08-24T03:52:18.581Z,75.02
2017-08-24T03:54:45.983Z,75.24
2017-08-24T03:57:13.542Z,75.64
2017-08-24T03:59:40.934Z,75.76
2017-08-24T04:02:08.330Z,76.14
2017-08-24T04:04:35.883Z,76.29
2017-08-24T04:07:03.287Z,76.04
2017-08-24T04:09:30.683Z,76.14
2017-08-24T04:11:58.234Z,75.85
2017-08-24T04:14:25.630Z,75.71
2017-08-24T04:16:53.030Z,75.73
2017-08-24T04:19:20.582Z,75.69
2017-08-24T04:21:47.982Z,75.84
2017-08-24T04:24:15.386Z,76.00
2017-08-24T04:26:42.806Z,76.02
2017-08-24T04:29:10.198Z,75.68
2017-08-24T04:31:37.595Z,76.16
2017-08-24T04:34:05.002Z,76.55
2017-08-24T04:36:32.398Z,76.94
2017-08-24T04:38:59.790Z,77.19
2017-08-24T04:41:27.338Z,77.40
2017-08-24T04:43:54.734Z,77.06
2017-08-24T04:46:22.134Z,76.76
2017-08-24T04:48:49.642Z,77.30
2017-08-24T04:51:17.051Z,77.34
2017-08-24T04:53:44.438Z,77.05
2017-08-24T04:56:11.989Z,76.78
2017-08-24T04:58:39.387Z,76.75
2017-08-24T05:01:06.794Z,76.40
2017-08-24T05:03:34.194Z,76.19
2017-08-24T05:06:01.592Z,75.96
2017-08-24T05:08:28.998Z,75.89
2017-08-24T05:10:56.590Z,76.24
2017-08-24T05:13:23.986Z,76.02
2017-08-24T05:15:51.385Z,76.58
2017-08-24T05:18:18.802Z,76.70
2017-08-24T05:20:46.198Z,76.94
2017-08-24T05:23:13.595Z,76.93
2017-08-24T05:25:41.147Z,77.16
2017-08-24T05:28:08.542Z,77.57
2017-08-24T05:30:35.938Z,78.00
2017-08-24T05:33:03.502Z,78.69
2017-08-24T05:35:30.888Z,79.04
2017-08-24T05:37:58.290Z,78.92
2017-08-24T05:40:25.728Z,77.88
2017-08-24T05:42:53.130Z,77.91
2017-08-24T05:45:20.522Z,78.34
2017-08-24T05:47:48.030Z,78.25
2017-08-24T05:50:15.442Z,77.91
2017-08-24T05:52:42.838Z,77.89
2017-08-24T05:55:10.344Z,77.83
2017-08-24T05:57:37.742Z,77.39
2017-08-24T06:00:05.139Z,77.31
2017-08-24T06:02:32.683Z,77.16
2017-08-24T06:05:00.079Z,77.23
2017-08-24T06:07:27.479Z,77.36
2017-08-24T06:09:54.978Z,77.09
2017-08-24T06:12:22.377Z,77.41
2017-08-24T06:14:49.766Z,78.36
2017-08-24T06:17:17.207Z,78.30
2017-08-24T06:19:44.855Z,77.86
2017-08-24T06:22:12.253Z,78.38
2017-08-24T06:24:39.804Z,78.00
2017-08-24T06:27:07.202Z,78.27
2017-08-24T06:29:34.599Z,77.62
2017-08-24T06:32:02.015Z,77.49
2017-08-24T06:34:29.410Z,77.59
2017-08-24T06:36:56.808Z,76.99
2017-08-24T06:39:24.225Z,76.84
2017-08-24T06:41:51.623Z,76.48
2017-08-24T06:44:19.018Z,75.94
2017-08-24T06:46:46.607Z,76.29
2017-08-24T06:49:14.014Z,75.96
2017-08-24T06:51:41.411Z,75.73
2017-08-24T06:54:08.827Z,75.31
2017-08-24T06:56:36.223Z,75.88
2017-08-24T06:59:03.621Z,75.50
2017-08-24T07:01:31.030Z,75.03
2017-08-24T07:03:58.434Z,73.89
2017-08-24T07:06:25.826Z,73.70
2017-08-24T07:08:53.256Z,73.63
2017-08-24T07:11:20.656Z,73.66
2017-08-24T07:13:48.050Z,73.08
2017-08-24T07:16:15.610Z,73.08
2017-08-24T07:18:43.006Z,72.98
2017-08-24T07:21:10.400Z,72.83
2017-08-24T07:23:37.822Z,73.15
2017-08-24T07:26:05.223Z,73.11
2017-08-24T07:28:32.617Z,72.64
2017-08-24T07:31:00.130Z,73.65
2017-08-24T07:33:27.526Z,74.40
2017-08-24T07:35:54.922Z,74.09
2017-08-24T07:38:22.430Z,73.59
2017-08-24T07:40:49.834Z,74.37
2017-08-24T07:43:17.235Z,73.92
2017-08-24T07:45:44.806Z,74.04
2017-08-24T07:48:12.185Z,73.50
2017-08-24T07:50:39.574Z,73.09
2017-08-24T07:53:07.127Z,72.23
2017-08-24T07:55:34.519Z,73.02
2017-08-24T07:58:01.922Z,72.06
2017-08-24T08:00:29.345Z,71.91
2017-08-24T08:02:56.742Z,71.95
2017-08-24T08:05:24.138Z,72.45
2017-08-24T08:07:51.559Z,71.76
2017-08-24T08:10:18.954Z,70.65
2017-08-24T08:12:46.354Z,70.97
2017-08-24T08:15:13.795Z,71.44
2017-08-24T08:17:41.190Z,71.63
2017-08-24T08:20:08.586Z,71.31
2017-08-24T08:22:36.139Z,70.54
2017-08-24T08:25:03.534Z,70.38
2017-08-24T08:27:30.930Z,69.98
2017-08-24T08:29:58.357Z,70.19
2017-08-24T08:32:25.750Z,70.35
2017-08-24T08:34:53.146Z,71.05
2017-08-24T08:37:20.642Z,68.79
2017-08-24T08:39:48.041Z,68.20
2017-08-24T08:42:15.440Z,67.76
2017-08-24T08:44:42.964Z,67.92
2017-08-24T08:47:10.339Z,66.58
2017-08-24T08:49:37.730Z,67.32
2017-08-24T08:52:05.183Z,68.40
2017-08-24T08:54:32.579Z,67.54
2017-08-24T08:56:59.975Z,67.26
2017-08-24T08:59:27.385Z,66.85
2017-08-24T09:01:54.783Z,66.29
2017-08-24T09:04:22.195Z,66.59
2017-08-24T09:06:49.705Z,66.96
2017-08-24T09:09:17.103Z,65.99
2017-08-24T09:11:44.503Z,65.93
2017-08-24T09:14:12.046Z,66.21
2017-08-24T09:16:39.445Z,66.04
2017-08-24T09:19:06.842Z,67.42
2017-08-24T09:21:34.282Z,66.83
2017-08-24T09:24:01.688Z,66.55
2017-08-24T09:26:29.086Z,65.40
2017-08-24T09:28:56.954Z,64.16
2017-08-24T09:31:24.354Z,65.10
2017-08-24T09:33:51.743Z,64.75
2017-08-24T09:36:19.152Z,64.56
2017-08-24T09:38:46.546Z,64.79
2017-08-24T09:41:13.939Z,65.74
2017-08-24T09:43:41.491Z,65.44
2017-08-24T09:46:08.887Z,65.59
2017-08-24T09:48:36.286Z,64.78
2017-08-24T09:51:03.830Z,65.37
2017-08-24T09:53:31.235Z,64.76
2017-08-24T09:55:58.626Z,64.10
2017-08-24T09:58:26.410Z,63.16
2017-08-24T10:00:53.815Z,64.15
2017-08-24T10:03:21.206Z,64.79
2017-08-24T10:05:48.746Z,65.73
2017-08-24T10:08:16.142Z,64.46
2017-08-24T10:10:43.542Z,63.33
2017-08-24T10:13:11.047Z,62.45
2017-08-24T10:15:38.687Z,63.85
2017-08-24T10:18:06.082Z,62.86
2017-08-24T10:20:33.503Z,62.20
2017-08-24T10:23:00.898Z,60.10
2017-08-24T10:25:28.306Z,60.21
2017-08-24T10:27:55.735Z,59.53
2017-08-24T10:30:23.149Z,60.11
2017-08-24T10:32:50.527Z,60.17
2017-08-24T10:35:17.934Z,60.02
2017-08-24T10:37:45.331Z,60.11
2017-08-24T10:40:12.731Z,60.45
2017-08-24T10:42:40.278Z,59.78
2017-08-24T10:45:07.701Z,57.38
2017-08-24T10:47:35.094Z,57.43
2017-08-24T10:50:02.518Z,57.52
2017-08-24T10:52:29.939Z,57.86
2017-08-24T10:54:57.327Z,56.02
2017-08-24T10:57:24.740Z,55.25
2017-08-24T10:59:52.132Z,53.67
2017-08-24T11:02:19.526Z,52.65
2017-08-24T11:04:46.947Z,53.75
2017-08-24T11:07:14.338Z,55.19
2017-08-24T11:09:41.738Z,58.13
2017-08-24T11:12:09.294Z,54.67
2017-08-24T11:14:36.690Z,56.50
2017-08-24T11:17:04.086Z,56.52
2017-08-24T11:19:31.717Z,57.02
2017-08-24T11:21:59.114Z,55.82
2017-08-24T11:24:26.510Z,57.26
2017-08-24T11:26:54.296Z,56.11
2017-08-24T11:29:21.690Z,56.12
2017-08-24T11:31:49.090Z,57.93
2017-08-24T11:34:16.646Z,55.96
2017-08-24T11:36:44.043Z,55.13
2017-08-24T11:39:11.438Z,52.87
2017-08-24T11:41:39.253Z,51.08
2017-08-24T11:44:06.684Z,51.65
2017-08-24T11:46:34.057Z,49.74
2017-08-24T11:49:01.827Z,48.99
2017-08-24T11:51:29.223Z,49.46
2017-08-24T11:53:56.622Z,48.53
2017-08-24T11:56:24.182Z,46.45
2017-08-24T11:58:51.582Z,47.25
2017-08-24T12:01:18.979Z,49.24
2017-08-24T12:03:46.491Z,48.89
2017-08-24T12:06:13.890Z,49.16
2017-08-24T12:08:41.291Z,47.35
2017-08-24T12:11:08.848Z,46.79
2017-08-24T12:13:36.266Z,47.64
2017-08-24T12:16:03.659Z,49.67
2017-08-24T12:18:31.100Z,49.18
2017-08-24T12:20:58.503Z,47.82
2017-08-24T12:23:25.900Z,47.36
2017-08-24T12:25:53.312Z,48.38
2017-08-24T12:28:20.703Z,48.74
2017-08-24T12:30:48.101Z,47.03
2017-08-24T12:33:15.657Z,46.93
2017-08-24T12:35:43.046Z,45.18
2017-08-24T12:38:10.438Z,46.50
2017-08-24T12:40:37.852Z,44.91
2017-08-24T12:43:05.246Z,45.28
2017-08-24T12:45:32.644Z,45.49
2017-08-24T12:48:00.205Z,45.65
2017-08-24T12:50:27.589Z,44.48
2017-08-24T12:52:55.008Z,45.09
2017-08-24T12:55:22.766Z,44.60
2017-08-24T12:57:50.158Z,44.97
2017-08-24T13:00:17.555Z,44.92
2017-08-24T13:02:45.102Z,45.05
2017-08-24T13:05:12.503Z,44.96
2017-08-24T13:07:39.906Z,45.75
2017-08-24T13:10:07.314Z,44.02
2017-08-24T13:12:34.709Z,43.05
2017-08-24T13:15:02.105Z,44.85
2017-08-24T13:17:29.878Z,42.94
2017-08-24T13:19:57.282Z,44.11
2017-08-24T13:22:24.687Z,42.28
2017-08-24T13:24:52.297Z,43.55
2017-08-24T13:27:19.689Z,43.73
2017-08-24T13:29:47.083Z,43.73
2017-08-24T13:32:14.635Z,43.84
2017-08-24T13:34:42.030Z,46.08
2017-08-24T13:37:09.426Z,43.62
2017-08-24T13:39:36.871Z,42.92
2017-08-24T13:42:04.268Z,44.04
2017-08-24T13:44:31.663Z,42.07
2017-08-24T13:46:59.575Z,44.52
2017-08-24T13:49:26.988Z,41.91
2017-08-24T13:51:54.378Z,44.14
2017-08-24T13:54:21.943Z,41.32
2017-08-24T13:56:49.340Z,40.40
2017-08-24T13:59:16.735Z,43.71
2017-08-24T14:01:44.141Z,43.64
2017-08-24T14:04:11.543Z,43.73
2017-08-24T14:06:38.946Z,43.87
2017-08-24T14:09:06.361Z,42.91
2017-08-24T14:11:33.755Z,44.70
2017-08-24T14:14:01.152Z,43.40
2017-08-24T14:16:28.694Z,44.09
2017-08-24T14:18:56.098Z,43.62
2017-08-24T14:21:23.504Z,44.16
2017-08-24T14:23:51.050Z,44.77
2017-08-24T14:26:18.447Z,44.75
2017-08-24T14:28:45.847Z,45.44
2017-08-24T14:31:13.350Z,45.57
2017-08-24T14:33:40.750Z,43.74
2017-08-24T14:36:08.154Z,44.88
2017-08-24T14:38:35.698Z,43.97
2017-08-24T14:41:03.950Z,45.13
2017-08-24T14:43:31.347Z,45.89
2017-08-24T14:45:58.785Z,43.83
2017-08-24T14:48:26.190Z,45.29
2017-08-24T14:50:53.590Z,44.66
2017-08-24T14:53:21.093Z,44.90
2017-08-24T14:55:48.501Z,45.22
2017-08-24T14:58:15.891Z,44.51
2017-08-24T15:00:43.307Z,46.32
2017-08-24T15:03:10.706Z,45.90
2017-08-24T15:05:38.098Z,45.55
2017-08-24T15:08:05.747Z,45.58
2017-08-24T15:10:33.147Z,47.20
2017-08-24T15:13:00.538Z,46.18
2017-08-24T15:15:28.091Z,45.27
2017-08-24T15:17:55.487Z,45.54
2017-08-24T15:20:22.879Z,44.09
2017-08-24T15:22:50.442Z,44.96
2017-08-24T15:25:17.837Z,45.28
2017-08-24T15:27:45.230Z,46.16
2017-08-24T15:30:12.659Z,47.23
2017-08-24T15:32:40.050Z,46.26
2017-08-24T15:35:07.443Z,46.86
2017-08-24T15:37:34.998Z,46.30
2017-08-24T15:40:02.394Z,45.71
2017-08-24T15:42:29.799Z,45.66
2017-08-24T15:44:57.734Z,46.22
2017-08-24T15:47:25.127Z,45.88
2017-08-24T15:49:52.522Z,46.26
2017-08-24T15:52:20.037Z,45.29
2017-08-24T15:54:47.426Z,45.89
2017-08-24T15:57:14.823Z,46.42
2017-08-24T15:59:42.230Z,44.91
2017-08-24T16:02:09.626Z,44.96
2017-08-24T16:04:37.031Z,46.21
2017-08-24T16:07:04.645Z,45.48
2017-08-24T16:09:32.043Z,46.13
2017-08-24T16:11:59.474Z,44.98
2017-08-24T16:14:27.022Z,45.79
2017-08-24T16:16:54.415Z,45.61
2017-08-24T16:19:21.818Z,47.02
2017-08-24T16:21:49.378Z,46.31
2017-08-24T16:24:16.774Z,46.94
2017-08-24T16:26:44.176Z,47.51
2017-08-24T16:29:11.726Z,47.38
2017-08-24T16:31:39.122Z,47.26
2017-08-24T16:34:06.540Z,47.05
2017-08-24T16:36:33.934Z,47.30
2017-08-24T16:39:01.326Z,48.52
2017-08-24T16:41:28.765Z,47.51
2017-08-24T16:43:56.162Z,47.37
2017-08-24T16:46:23.564Z,48.36
2017-08-24T16:48:50.963Z,47.62
2017-08-24T16:51:18.359Z,47.63
2017-08-24T16:53:45.906Z,47.18
2017-08-24T16:56:13.299Z,47.11
2017-08-24T16:58:40.698Z,47.06
2017-08-24T17:01:08.103Z,47.78
2017-08-24T17:03:35.500Z,47.42
2017-08-24T17:06:02.915Z,48.32
2017-08-24T17:08:30.310Z,46.61
2017-08-24T17:10:57.705Z,47.10
2017-08-24T17:13:25.106Z,47.82
2017-08-24T17:15:52.507Z,48.33
2017-08-24T17:18:20.059Z,47.89
2017-08-24T17:20:47.463Z,47.93
2017-08-24T17:23:14.858Z,48.11
2017-08-24T17:25:42.374Z,47.75
2017-08-24T17:28:09.762Z,48.24
2017-08-24T17:30:37.154Z,49.02
2017-08-24T17:33:04.663Z,48.53
2017-08-24T17:35:32.059Z,48.62
2017-08-24T17:37:59.450Z,49.49
2017-08-24T17:40:26.878Z,48.84
2017-08-24T17:42:54.271Z,49.83
2017-08-24T17:45:21.667Z,49.82
2017-08-24T17:47:49.207Z,50.01
2017-08-24T17:50:16.603Z,49.32
2017-08-24T17:52:43.998Z,50.12
2017-08-24T17:55:11.402Z,50.56
2017-08-24T17:57:38.802Z,50.60
2017-08-24T18:00:06.198Z,51.31
2017-08-24T18:02:33.744Z,51.44
2017-08-24T18:05:01.140Z,51.61
2017-08-24T18:07:28.534Z,51.63
2017-08-24T18:09:56.085Z,51.89
2017-08-24T18:12:23.482Z,52.50
2017-08-24T18:14:50.886Z,52.67
2017-08-24T18:17:18.435Z,53.87
2017-08-24T18:19:45.830Z,53.70
2017-08-24T18:22:13.228Z,54.06
2017-08-24T18:24:40.658Z,54.27
2017-08-24T18:27:08.063Z,55.21
2017-08-24T18:29:35.454Z,55.37
2017-08-24T18:32:03.010Z,54.40
2017-08-24T18:34:30.412Z,56.02
2017-08-24T18:36:57.801Z,54.65
2017-08-24T18:39:25.355Z,54.24
2017-08-24T18:41:52.748Z,55.20
2017-08-24T18:44:20.138Z,54.95
2017-08-24T18:46:47.709Z,55.60
2017-08-24T18:49:15.088Z,56.68
2017-08-24T18:51:42.484Z,57.99
2017-08-24T18:54:09.898Z,58.92
2017-08-24T18:56:37.295Z,59.19
2017-08-24T18:59:04.750Z,59.67
2017-08-24T19:01:32.498Z,59.88
2017-08-24T19:03:59.886Z,60.15
2017-08-24T19:06:27.279Z,61.33
2017-08-24T19:08:54.774Z,61.76
2017-08-24T19:11:22.175Z,61.90
2017-08-24T19:13:49.561Z,62.37
2017-08-24T19:16:17.118Z,63.23
2017-08-24T19:18:44.506Z,63.64
2017-08-24T19:21:11.902Z,63.58
2017-08-24T19:23:39.458Z,63.98
2017-08-24T19:26:06.852Z,64.11
2017-08-24T19:28:34.249Z,64.37
2017-08-24T19:31:01.699Z,65.04
2017-08-24T19:33:29.094Z,65.34
2017-08-24T19:35:56.492Z,65.68
2017-08-24T19:38:23.987Z,66.09
2017-08-24T19:40:51.382Z,66.40
2017-08-24T19:43:18.778Z,66.91
2017-08-24T19:45:46.220Z,67.31
2017-08-24T19:48:13.611Z,67.92
2017-08-24T19:50:41.026Z,68.20
2017-08-24T19:53:08.778Z,67.00
2017-08-24T19:55:36.179Z,66.16
2017-08-24T19:58:03.579Z,67.36
2017-08-24T20:00:30.986Z,68.01
2017-08-24T20:02:58.375Z,68.57
2017-08-24T20:05:25.779Z,68.54
2017-08-24T20:07:53.194Z,67.35
2017-08-24T20:10:20.586Z,69.46
2017-08-24T20:12:47.978Z,69.01
2017-08-24T20:15:15.387Z,69.81
2017-08-24T20:17:42.783Z,68.78
2017-08-24T20:20:10.183Z,69.70
2017-08-24T20:22:37.646Z,69.84
2017-08-24T20:25:05.038Z,70.54
2017-08-24T20:27:32.460Z,71.11
2017-08-24T20:30:00.166Z,71.16
2017-08-24T20:32:27.586Z,71.61
2017-08-24T20:34:54.991Z,71.40
2017-08-24T20:37:22.538Z,70.69
2017-08-24T20:39:49.943Z,71.09
2017-08-24T20:42:17.346Z,71.54
2017-08-24T20:44:44.758Z,71.86
2017-08-24T20:47:12.151Z,72.08
2017-08-24T20:49:39.553Z,72.31
2017-08-24T20:52:07.099Z,72.33
2017-08-24T20:54:34.491Z,72.56
2017-08-24T20:57:01.883Z,72.69
2017-08-24T20:59:29.430Z,72.78
2017-08-24T21:01:57.058Z,72.76
2017-08-24T21:04:24.443Z,73.01
2017-08-24T21:06:51.951Z,73.24
2017-08-24T21:09:19.349Z,73.53
2017-08-24T21:11:46.744Z,72.91
2017-08-24T21:14:14.254Z,72.84
2017-08-24T21:16:41.646Z,73.41
2017-08-24T21:19:09.042Z,72.73
2017-08-24T21:21:36.591Z,73.46
2017-08-24T21:24:03.992Z,73.48
2017-08-24T21:26:31.383Z,73.29
2017-08-24T21:28:58.837Z,72.58
2017-08-24T21:31:26.238Z,72.43
2017-08-24T21:33:53.639Z,72.47
2017-08-24T21:36:21.143Z,72.20
2017-08-24T21:38:48.547Z,72.53
2017-08-24T21:41:15.951Z,72.36
2017-08-24T21:43:43.498Z,72.44
2017-08-24T21:46:10.890Z,72.72
2017-08-24T21:48:38.295Z,72.74
2017-08-24T21:51:06.231Z,72.73
2017-08-24T21:53:33.631Z,72.77
2017-08-24T21:56:01.019Z,72.72
2017-08-24T21:58:28.574Z,72.66
2017-08-24T22:00:55.971Z,72.96
2017-08-24T22:03:23.363Z,73.00
2017-08-24T22:05:51.178Z,72.96
2017-08-24T22:08:18.576Z,73.08
2017-08-24T22:10:45.970Z,73.21
2017-08-24T22:13:13.523Z,73.53
2017-08-24T22:15:40.925Z,73.79
2017-08-24T22:18:08.319Z,74.18
2017-08-24T22:20:35.874Z,74.28
2017-08-24T22:23:03.269Z,74.49
2017-08-24T22:25:30.665Z,74.82
2017-08-24T22:27:58.231Z,74.93
2017-08-24T22:30:25.610Z,75.12
2017-08-24T22:32:53.002Z,75.52
2017-08-24T22:35:20.413Z,75.23
2017-08-24T22:37:47.802Z,75.29
2017-08-24T22:40:15.206Z,75.61
2017-08-24T22:42:42.978Z,75.98
2017-08-24T22:45:10.371Z,75.87
2017-08-24T22:47:37.782Z,76.00
2017-08-24T22:50:05.207Z,75.90
2017-08-24T22:52:32.611Z,76.23
2017-08-24T22:55:05.674Z,76.33
2017-08-24T22:57:38.611Z,76.54
2017-08-24T23:00:12.043Z,76.85
2017-08-24T23:02:45.114Z,77.13
2017-08-24T23:05:12.563Z,77.41
2017-08-24T23:07:39.970Z,77.58
2017-08-24T23:10:07.374Z,77.70
2017-08-24T23:12:34.879Z,77.64
2017-08-24T23:15:02.275Z,77.56
2017-08-24T23:17:29.673Z,77.84
2017-08-24T23:19:57.078Z,78.00
2017-08-24T23:22:24.472Z,77.88
2017-08-24T23:24:51.882Z,78.16
2017-08-24T23:27:19.391Z,78.09
2017-08-24T23:29:46.786Z,78.14
2017-08-24T23:32:14.183Z,78.31
2017-08-24T23:34:41.740Z,78.32
2017-08-24T23:37:09.137Z,78.38
2017-08-24T23:39:36.534Z,78.46
2017-08-24T23:42:04.298Z,78.64
2017-08-24T23:44:31.702Z,78.78
2017-08-24T23:46:59.094Z,78.61
2017-08-24T23:49:26.915Z,78.37
2017-08-24T23:51:54.314Z,78.65
2017-08-24T23:54:21.710Z,78.90
2017-08-24T23:56:49.218Z,79.13
2017-08-24T23:59:16.610Z,79.43
